createdAt,value
2017-07-17T00:00:35.017Z,1014.3
2017-07-17T00:01:15.573Z,1014.27
2017-07-17T00:01:56.143Z,1014.26
2017-07-17T00:02:36.727Z,1014.28
2017-07-17T00:03:17.286Z,1014.3
2017-07-17T00:03:57.860Z,1014.26
2017-07-17T00:04:38.435Z,1014.29
2017-07-17T00:05:19.026Z,1014.27
2017-07-17T00:05:59.634Z,1014.29
2017-07-17T00:06:40.217Z,1014.29
2017-07-17T00:07:20.801Z,1014.24
2017-07-17T00:08:01.382Z,1014.24
2017-07-17T00:08:41.996Z,1014.23
2017-07-17T00:09:22.590Z,1014.25
2017-07-17T00:10:03.191Z,1014.27
2017-07-17T00:10:43.802Z,1014.28
2017-07-17T00:11:24.370Z,1014.27
2017-07-17T00:12:04.945Z,1014.28
2017-07-17T00:12:45.513Z,1014.3
2017-07-17T00:13:26.084Z,1014.24
2017-07-17T00:14:06.689Z,1014.26
2017-07-17T00:14:47.263Z,1014.27
2017-07-17T00:15:27.859Z,1014.27
2017-07-17T00:16:08.436Z,1014.28
2017-07-17T00:16:49.021Z,1014.26
2017-07-17T00:17:29.616Z,1014.27
2017-07-17T00:18:10.197Z,1014.3
2017-07-17T00:18:50.792Z,1014.29
2017-07-17T00:19:31.374Z,1014.26
2017-07-17T00:20:11.941Z,1014.26
2017-07-17T00:20:52.517Z,1014.29
2017-07-17T00:21:33.102Z,1014.26
2017-07-17T00:22:13.772Z,1014.24
2017-07-17T00:22:54.361Z,1014.29
2017-07-17T00:23:34.961Z,1014.24
2017-07-17T00:24:15.560Z,1014.25
2017-07-17T00:24:56.142Z,1014.25
2017-07-17T00:25:36.714Z,1014.24
2017-07-17T00:26:17.284Z,1014.24
2017-07-17T00:26:57.867Z,1014.22
2017-07-17T00:27:38.490Z,1014.2
2017-07-17T00:28:19.065Z,1014.22
2017-07-17T00:28:59.665Z,1014.23
2017-07-17T00:29:40.233Z,1014.18
2017-07-17T00:30:20.822Z,1014.21
2017-07-17T00:31:01.386Z,1014.23
2017-07-17T00:31:42.003Z,1014.21
2017-07-17T00:32:22.605Z,1014.18
2017-07-17T00:33:03.174Z,1014.17
2017-07-17T00:33:43.758Z,1014.18
2017-07-17T00:34:24.332Z,1014.23
2017-07-17T00:35:04.890Z,1014.16
2017-07-17T00:35:45.464Z,1014.19
2017-07-17T00:36:26.035Z,1014.2
2017-07-17T00:37:06.657Z,1014.14
2017-07-17T00:37:47.242Z,1014.17
2017-07-17T00:38:27.849Z,1014.18
2017-07-17T00:39:08.448Z,1014.16
2017-07-17T00:39:49.009Z,1014.18
2017-07-17T00:40:29.601Z,1014.15
2017-07-17T00:41:10.187Z,1014.17
2017-07-17T00:41:50.756Z,1014.16
2017-07-17T00:42:31.327Z,1014.18
2017-07-17T00:43:11.897Z,1014.22
2017-07-17T00:43:52.521Z,1014.18
2017-07-17T00:44:33.102Z,1014.17
2017-07-17T00:45:13.689Z,1014.19
2017-07-17T00:45:54.271Z,1014.21
2017-07-17T00:46:34.859Z,1014.14
2017-07-17T00:47:15.438Z,1014.21
2017-07-17T00:47:56.142Z,1014.21
2017-07-17T00:48:36.729Z,1014.18
2017-07-17T00:49:17.265Z,1014.24
2017-07-17T00:49:57.849Z,1014.21
2017-07-17T00:50:38.414Z,1014.26
2017-07-17T00:51:19.003Z,1014.21
2017-07-17T00:51:59.587Z,1014.21
2017-07-17T00:52:40.201Z,1014.24
2017-07-17T00:53:20.772Z,1014.22
2017-07-17T00:54:01.340Z,1014.26
2017-07-17T00:54:41.917Z,1014.23
2017-07-17T00:55:22.505Z,1014.26
2017-07-17T00:56:03.078Z,1014.26
2017-07-17T00:56:43.681Z,1014.26
2017-07-17T00:57:24.286Z,1014.2
2017-07-17T00:58:04.850Z,1014.25
2017-07-17T00:58:45.441Z,1014.25
2017-07-17T00:59:26.010Z,1014.25
2017-07-17T01:00:06.576Z,1014.26
2017-07-17T01:00:47.158Z,1014.23
2017-07-17T01:01:27.747Z,1014.25
2017-07-17T01:02:08.320Z,1014.24
2017-07-17T01:02:48.905Z,1014.24
2017-07-17T01:03:29.498Z,1014.21
2017-07-17T01:04:10.066Z,1014.21
2017-07-17T01:04:50.660Z,1014.25
2017-07-17T01:05:31.247Z,1014.21
2017-07-17T01:06:11.820Z,1014.25
2017-07-17T01:06:52.395Z,1014.24
2017-07-17T01:07:33.169Z,1014.27
2017-07-17T01:08:13.783Z,1014.22
2017-07-17T01:08:54.332Z,1014.27
2017-07-17T01:09:34.881Z,1014.27
2017-07-17T01:10:15.459Z,1014.24
2017-07-17T01:10:56.059Z,1014.27
2017-07-17T01:11:36.639Z,1014.28
2017-07-17T01:12:17.199Z,1014.26
2017-07-17T01:12:57.778Z,1014.25
2017-07-17T01:13:38.377Z,1014.32
2017-07-17T01:14:18.942Z,1014.27
2017-07-17T01:14:59.549Z,1014.28
2017-07-17T01:15:40.107Z,1014.26
2017-07-17T01:16:20.676Z,1014.23
2017-07-17T01:17:01.285Z,1014.25
2017-07-17T01:17:41.884Z,1014.24
2017-07-17T01:18:22.453Z,1014.26
2017-07-17T01:19:03.041Z,1014.28
2017-07-17T01:19:43.629Z,1014.21
2017-07-17T01:20:24.203Z,1014.22
2017-07-17T01:21:04.792Z,1014.25
2017-07-17T01:21:45.379Z,1014.25
2017-07-17T01:22:25.964Z,1014.23
2017-07-17T01:23:06.543Z,1014.19
2017-07-17T01:23:47.141Z,1014.22
2017-07-17T01:24:27.753Z,1014.2
2017-07-17T01:25:08.332Z,1014.19
2017-07-17T01:25:48.948Z,1014.21
2017-07-17T01:26:29.501Z,1014.19
2017-07-17T01:27:10.099Z,1014.24
2017-07-17T01:27:50.674Z,1014.23
2017-07-17T01:28:31.244Z,1014.26
2017-07-17T01:29:11.849Z,1014.29
2017-07-17T01:29:52.433Z,1014.28
2017-07-17T01:30:33.009Z,1014.27
2017-07-17T01:31:13.592Z,1014.29
2017-07-17T01:31:54.209Z,1014.26
2017-07-17T01:32:34.825Z,1014.29
2017-07-17T01:33:15.410Z,1014.28
2017-07-17T01:33:56.021Z,1014.24
2017-07-17T01:34:36.628Z,1014.24
2017-07-17T01:35:17.220Z,1014.29
2017-07-17T01:35:57.862Z,1014.28
2017-07-17T01:36:38.437Z,1014.3
2017-07-17T01:37:19.029Z,1014.29
2017-07-17T01:37:59.624Z,1014.37
2017-07-17T01:38:40.221Z,1014.32
2017-07-17T01:39:20.843Z,1014.32
2017-07-17T01:40:01.439Z,1014.35
2017-07-17T01:40:42.056Z,1014.3
2017-07-17T01:41:22.647Z,1014.35
2017-07-17T01:42:03.253Z,1014.36
2017-07-17T01:42:43.860Z,1014.38
2017-07-17T01:43:24.442Z,1014.39
2017-07-17T01:44:05.036Z,1014.33
2017-07-17T01:44:45.626Z,1014.35
2017-07-17T01:45:26.190Z,1014.36
2017-07-17T01:46:06.752Z,1014.35
2017-07-17T01:46:47.378Z,1014.32
2017-07-17T01:47:27.962Z,1014.32
2017-07-17T01:48:08.552Z,1014.37
2017-07-17T01:48:49.129Z,1014.3
2017-07-17T01:49:29.700Z,1014.31
2017-07-17T01:50:10.262Z,1014.3
2017-07-17T01:50:50.839Z,1014.32
2017-07-17T01:51:31.442Z,1014.35
2017-07-17T01:52:12.046Z,1014.31
2017-07-17T01:52:52.615Z,1014.37
2017-07-17T01:53:33.184Z,1014.31
2017-07-17T01:54:13.834Z,1014.33
2017-07-17T01:54:54.415Z,1014.3
2017-07-17T01:55:34.987Z,1014.3
2017-07-17T01:56:15.565Z,1014.33
2017-07-17T01:56:56.134Z,1014.3
2017-07-17T01:57:36.808Z,1014.31
2017-07-17T01:58:17.381Z,1014.29
2017-07-17T01:58:57.971Z,1014.26
2017-07-17T01:59:38.523Z,1014.23
2017-07-17T02:00:19.097Z,1014.28
2017-07-17T02:00:59.670Z,1014.3
2017-07-17T02:01:40.232Z,1014.3
2017-07-17T02:02:20.870Z,1014.32
2017-07-17T02:03:01.441Z,1014.29
2017-07-17T02:03:42.027Z,1014.29
2017-07-17T02:04:22.604Z,1014.3
2017-07-17T02:05:03.170Z,1014.3
2017-07-17T02:05:43.750Z,1014.33
2017-07-17T02:06:24.359Z,1014.35
2017-07-17T02:07:04.929Z,1014.34
2017-07-17T02:07:45.525Z,1014.33
2017-07-17T02:08:26.084Z,1014.3
2017-07-17T02:09:06.665Z,1014.34
2017-07-17T02:09:47.225Z,1014.34
2017-07-17T02:10:27.852Z,1014.39
2017-07-17T02:11:08.477Z,1014.39
2017-07-17T02:11:49.094Z,1014.36
2017-07-17T02:12:29.655Z,1014.35
2017-07-17T02:13:10.254Z,1014.37
2017-07-17T02:13:50.841Z,1014.37
2017-07-17T02:14:31.413Z,1014.41
2017-07-17T02:15:12.004Z,1014.35
2017-07-17T02:15:52.584Z,1014.4
2017-07-17T02:16:33.148Z,1014.36
2017-07-17T02:17:13.715Z,1014.36
2017-07-17T02:17:54.296Z,1014.37
2017-07-17T02:18:34.860Z,1014.39
2017-07-17T02:19:15.450Z,1014.42
2017-07-17T02:19:56.017Z,1014.41
2017-07-17T02:20:36.587Z,1014.41
2017-07-17T02:21:17.165Z,1014.42
2017-07-17T02:21:57.742Z,1014.45
2017-07-17T02:22:38.303Z,1014.43
2017-07-17T02:23:18.874Z,1014.39
2017-07-17T02:23:59.508Z,1014.37
2017-07-17T02:24:40.111Z,1014.38
2017-07-17T02:25:20.679Z,1014.42
2017-07-17T02:26:01.259Z,1014.38
2017-07-17T02:26:41.832Z,1014.38
2017-07-17T02:27:22.429Z,1014.38
2017-07-17T02:28:02.983Z,1014.4
2017-07-17T02:28:43.573Z,1014.35
2017-07-17T02:29:24.211Z,1014.4
2017-07-17T02:30:04.796Z,1014.34
2017-07-17T02:30:45.406Z,1014.36
2017-07-17T02:31:25.972Z,1014.39
2017-07-17T02:32:06.541Z,1014.36
2017-07-17T02:32:47.171Z,1014.36
2017-07-17T02:33:27.745Z,1014.4
2017-07-17T02:34:08.340Z,1014.36
2017-07-17T02:34:48.935Z,1014.42
2017-07-17T02:35:29.606Z,1014.43
2017-07-17T02:36:10.184Z,1014.41
2017-07-17T02:36:50.793Z,1014.39
2017-07-17T02:37:31.372Z,1014.41
2017-07-17T02:38:12.012Z,1014.44
2017-07-17T02:38:52.585Z,1014.43
2017-07-17T02:39:33.147Z,1014.45
2017-07-17T02:40:13.727Z,1014.43
2017-07-17T02:40:54.302Z,1014.45
2017-07-17T02:41:34.896Z,1014.44
2017-07-17T02:42:15.493Z,1014.43
2017-07-17T02:42:56.073Z,1014.41
2017-07-17T02:43:36.656Z,1014.44
2017-07-17T02:44:17.244Z,1014.42
2017-07-17T02:44:57.821Z,1014.44
2017-07-17T02:45:38.416Z,1014.44
2017-07-17T02:46:19.023Z,1014.45
2017-07-17T02:46:59.622Z,1014.42
2017-07-17T02:47:40.228Z,1014.43
2017-07-17T02:48:20.826Z,1014.44
2017-07-17T02:49:01.399Z,1014.44
2017-07-17T02:49:42.018Z,1014.45
2017-07-17T02:50:22.587Z,1014.42
2017-07-17T02:51:03.170Z,1014.44
2017-07-17T02:51:43.733Z,1014.45
2017-07-17T02:52:24.297Z,1014.5
2017-07-17T02:53:04.890Z,1014.5
2017-07-17T02:53:45.523Z,1014.47
2017-07-17T02:54:26.102Z,1014.52
2017-07-17T02:55:06.696Z,1014.51
2017-07-17T02:55:47.293Z,1014.61
2017-07-17T02:56:27.844Z,1014.56
2017-07-17T02:57:08.414Z,1014.58
2017-07-17T02:57:49.044Z,1014.6
2017-07-17T02:58:29.636Z,1014.6
2017-07-17T02:59:10.227Z,1014.59
2017-07-17T02:59:50.793Z,1014.57
2017-07-17T03:00:31.371Z,1014.58
2017-07-17T03:01:11.949Z,1014.59
2017-07-17T03:01:52.516Z,1014.61
2017-07-17T03:02:33.091Z,1014.61
2017-07-17T03:03:13.708Z,1014.59
2017-07-17T03:03:54.289Z,1014.58
2017-07-17T03:04:34.898Z,1014.59
2017-07-17T03:05:15.473Z,1014.58
2017-07-17T03:05:56.055Z,1014.58
2017-07-17T03:06:36.658Z,1014.6
2017-07-17T03:07:17.273Z,1014.58
2017-07-17T03:07:57.835Z,1014.6
2017-07-17T03:08:38.402Z,1014.63
2017-07-17T03:09:18.999Z,1014.6
2017-07-17T03:09:59.592Z,1014.58
2017-07-17T03:10:40.156Z,1014.6
2017-07-17T03:11:20.796Z,1014.63
2017-07-17T03:12:01.385Z,1014.58
2017-07-17T03:12:42.074Z,1014.61
2017-07-17T03:13:22.657Z,1014.67
2017-07-17T03:14:03.239Z,1014.66
2017-07-17T03:14:43.837Z,1014.67
2017-07-17T03:15:24.422Z,1014.69
2017-07-17T03:16:05.035Z,1014.67
2017-07-17T03:16:45.625Z,1014.66
2017-07-17T03:17:26.223Z,1014.64
2017-07-17T03:18:06.827Z,1014.69
2017-07-17T03:18:47.407Z,1014.66
2017-07-17T03:19:27.987Z,1014.67
2017-07-17T03:20:08.565Z,1014.63
2017-07-17T03:20:49.134Z,1014.67
2017-07-17T03:21:29.701Z,1014.69
2017-07-17T03:22:10.300Z,1014.71
2017-07-17T03:22:50.877Z,1014.7
2017-07-17T03:23:31.434Z,1014.73
2017-07-17T03:24:12.010Z,1014.7
2017-07-17T03:24:52.595Z,1014.71
2017-07-17T03:25:33.183Z,1014.7
2017-07-17T03:26:13.768Z,1014.72
2017-07-17T03:26:54.354Z,1014.69
2017-07-17T03:27:34.988Z,1014.72
2017-07-17T03:28:15.558Z,1014.69
2017-07-17T03:28:56.176Z,1014.71
2017-07-17T03:29:36.762Z,1014.77
2017-07-17T03:30:17.351Z,1014.77
2017-07-17T03:30:57.934Z,1014.72
2017-07-17T03:31:38.516Z,1014.72
2017-07-17T03:32:19.107Z,1014.74
2017-07-17T03:32:59.698Z,1014.75
2017-07-17T03:33:40.270Z,1014.76
2017-07-17T03:34:20.859Z,1014.73
2017-07-17T03:35:01.470Z,1014.7
2017-07-17T03:35:42.048Z,1014.71
2017-07-17T03:36:22.612Z,1014.78
2017-07-17T03:37:03.189Z,1014.71
2017-07-17T03:37:43.806Z,1014.76
2017-07-17T03:38:24.392Z,1014.76
2017-07-17T03:39:04.974Z,1014.7
2017-07-17T03:39:45.521Z,1014.76
2017-07-17T03:40:26.163Z,1014.76
2017-07-17T03:41:06.730Z,1014.68
2017-07-17T03:41:47.342Z,1014.72
2017-07-17T03:42:27.939Z,1014.76
2017-07-17T03:43:08.528Z,1014.8
2017-07-17T03:43:49.109Z,1014.8
2017-07-17T03:44:29.678Z,1014.81
2017-07-17T03:45:10.292Z,1014.82
2017-07-17T03:45:50.893Z,1014.79
2017-07-17T03:46:31.547Z,1014.82
2017-07-17T03:47:12.110Z,1014.83
2017-07-17T03:47:52.679Z,1014.82
2017-07-17T03:48:33.261Z,1014.82
2017-07-17T03:49:13.850Z,1014.8
2017-07-17T03:49:54.527Z,1014.82
2017-07-17T03:50:35.099Z,1014.82
2017-07-17T03:51:15.667Z,1014.85
2017-07-17T03:51:56.249Z,1014.86
2017-07-17T03:52:36.806Z,1014.83
2017-07-17T03:53:17.404Z,1014.88
2017-07-17T03:53:57.970Z,1014.86
2017-07-17T03:54:38.573Z,1014.85
2017-07-17T03:55:19.148Z,1014.87
2017-07-17T03:55:59.717Z,1014.88
2017-07-17T03:56:40.300Z,1014.91
2017-07-17T03:57:20.936Z,1014.88
2017-07-17T03:58:01.513Z,1014.89
2017-07-17T03:58:42.115Z,1014.93
2017-07-17T03:59:22.685Z,1014.96
2017-07-17T04:00:03.261Z,1014.94
2017-07-17T04:00:43.829Z,1014.94
2017-07-17T04:01:24.432Z,1014.93
2017-07-17T04:02:05.024Z,1014.94
2017-07-17T04:02:45.578Z,1014.98
2017-07-17T04:03:26.208Z,1014.95
2017-07-17T04:04:06.777Z,1014.98
2017-07-17T04:04:47.362Z,1014.99
2017-07-17T04:05:27.973Z,1014.98
2017-07-17T04:06:08.540Z,1014.99
2017-07-17T04:06:49.114Z,1015.01
2017-07-17T04:07:29.696Z,1015.04
2017-07-17T04:08:10.249Z,1015.01
2017-07-17T04:08:50.817Z,1014.98
2017-07-17T04:09:31.417Z,1015.01
2017-07-17T04:10:11.971Z,1015
2017-07-17T04:10:52.544Z,1015.04
2017-07-17T04:11:33.124Z,1015.03
2017-07-17T04:12:13.682Z,1015.06
2017-07-17T04:12:54.248Z,1015.04
2017-07-17T04:13:34.819Z,1015.04
2017-07-17T04:14:15.388Z,1014.99
2017-07-17T04:14:56.019Z,1015.06
2017-07-17T04:15:36.599Z,1015.08
2017-07-17T04:16:17.250Z,1015.07
2017-07-17T04:16:57.813Z,1015.09
2017-07-17T04:17:38.402Z,1015.06
2017-07-17T04:18:19.007Z,1015.13
2017-07-17T04:18:59.713Z,1015.1
2017-07-17T04:19:40.322Z,1015.06
2017-07-17T04:20:20.879Z,1015.11
2017-07-17T04:21:01.452Z,1015.09
2017-07-17T04:21:42.047Z,1015.16
2017-07-17T04:22:22.630Z,1015.15
2017-07-17T04:23:03.207Z,1015.14
2017-07-17T04:23:43.792Z,1015.12
2017-07-17T04:24:24.397Z,1015.17
2017-07-17T04:25:04.967Z,1015.2
2017-07-17T04:25:45.579Z,1015.19
2017-07-17T04:26:26.168Z,1015.21
2017-07-17T04:27:06.724Z,1015.17
2017-07-17T04:27:47.345Z,1015.21
2017-07-17T04:28:27.928Z,1015.18
2017-07-17T04:29:08.509Z,1015.17
2017-07-17T04:29:49.089Z,1015.2
2017-07-17T04:30:29.676Z,1015.24
2017-07-17T04:31:10.261Z,1015.17
2017-07-17T04:31:50.853Z,1015.22
2017-07-17T04:32:31.412Z,1015.23
2017-07-17T04:33:11.985Z,1015.2
2017-07-17T04:33:52.584Z,1015.21
2017-07-17T04:34:33.202Z,1015.21
2017-07-17T04:35:13.773Z,1015.22
2017-07-17T04:35:54.337Z,1015.21
2017-07-17T04:36:34.917Z,1015.22
2017-07-17T04:37:15.600Z,1015.21
2017-07-17T04:37:56.259Z,1015.21
2017-07-17T04:38:36.837Z,1015.19
2017-07-17T04:39:17.413Z,1015.2
2017-07-17T04:39:58.075Z,1015.17
2017-07-17T04:40:38.650Z,1015.18
2017-07-17T04:41:19.230Z,1015.15
2017-07-17T04:41:59.813Z,1015.14
2017-07-17T04:42:40.409Z,1015.15
2017-07-17T04:43:20.985Z,1015.18
2017-07-17T04:44:01.556Z,1015.13
2017-07-17T04:44:42.126Z,1015.14
2017-07-17T04:45:22.708Z,1015.12
2017-07-17T04:46:03.270Z,1015.15
2017-07-17T04:46:43.849Z,1015.11
2017-07-17T04:47:24.417Z,1015.13
2017-07-17T04:48:04.990Z,1015.1
2017-07-17T04:48:45.556Z,1015.12
2017-07-17T04:49:26.153Z,1015.17
2017-07-17T04:50:06.724Z,1015.12
2017-07-17T04:50:47.298Z,1015.09
2017-07-17T04:51:27.869Z,1015.1
2017-07-17T04:52:08.431Z,1015.2
2017-07-17T04:52:49.002Z,1015.18
2017-07-17T04:53:29.587Z,1015.17
2017-07-17T04:54:10.173Z,1015.11
2017-07-17T04:54:50.792Z,1015.16
2017-07-17T04:55:31.372Z,1015.16
2017-07-17T04:56:11.962Z,1015.13
2017-07-17T04:56:52.540Z,1015.11
2017-07-17T04:57:33.229Z,1015.13
2017-07-17T04:58:13.795Z,1015.14
2017-07-17T04:58:54.374Z,1015.16
2017-07-17T04:59:35.013Z,1015.19
2017-07-17T05:00:15.653Z,1015.2
2017-07-17T05:00:56.420Z,1015.25
2017-07-17T05:01:36.984Z,1015.24
2017-07-17T05:02:17.661Z,1015.21
2017-07-17T05:02:58.263Z,1015.19
2017-07-17T05:03:38.867Z,1015.22
2017-07-17T05:04:20.122Z,1015.22
2017-07-17T05:05:00.664Z,1015.25
2017-07-17T05:05:41.252Z,1015.27
2017-07-17T05:06:21.837Z,1015.26
2017-07-17T05:07:02.892Z,1015.32
2017-07-17T05:07:43.443Z,1015.32
2017-07-17T05:08:24.008Z,1015.37
2017-07-17T05:09:04.757Z,1015.33
2017-07-17T05:09:45.326Z,1015.32
2017-07-17T05:10:25.901Z,1015.33
2017-07-17T05:11:06.495Z,1015.32
2017-07-17T05:11:47.052Z,1015.36
2017-07-17T05:12:27.632Z,1015.37
2017-07-17T05:13:08.209Z,1015.38
2017-07-17T05:13:48.802Z,1015.42
2017-07-17T05:14:29.381Z,1015.4
2017-07-17T05:15:09.968Z,1015.41
2017-07-17T05:15:50.545Z,1015.41
2017-07-17T05:16:31.106Z,1015.47
2017-07-17T05:17:11.697Z,1015.46
2017-07-17T05:17:52.276Z,1015.44
2017-07-17T05:18:32.860Z,1015.44
2017-07-17T05:19:13.454Z,1015.43
2017-07-17T05:19:54.026Z,1015.48
2017-07-17T05:20:34.664Z,1015.47
2017-07-17T05:21:15.278Z,1015.42
2017-07-17T05:21:55.848Z,1015.48
2017-07-17T05:22:36.421Z,1015.52
2017-07-17T05:23:16.984Z,1015.49
2017-07-17T05:23:57.561Z,1015.52
2017-07-17T05:24:38.132Z,1015.52
2017-07-17T05:25:18.706Z,1015.47
2017-07-17T05:25:59.293Z,1015.5
2017-07-17T05:26:39.970Z,1015.53
2017-07-17T05:27:20.467Z,1015.53
2017-07-17T05:28:01.058Z,1015.52
2017-07-17T05:28:41.658Z,1015.57
2017-07-17T05:29:22.234Z,1015.57
2017-07-17T05:30:02.835Z,1015.58
2017-07-17T05:30:43.414Z,1015.56
2017-07-17T05:31:24.010Z,1015.56
2017-07-17T05:32:04.568Z,1015.56
2017-07-17T05:32:45.144Z,1015.53
2017-07-17T05:33:25.727Z,1015.58
2017-07-17T05:34:06.303Z,1015.61
2017-07-17T05:34:46.883Z,1015.6
2017-07-17T05:35:27.455Z,1015.62
2017-07-17T05:36:08.037Z,1015.66
2017-07-17T05:36:48.608Z,1015.73
2017-07-17T05:37:29.182Z,1015.72
2017-07-17T05:38:09.757Z,1015.62
2017-07-17T05:38:50.328Z,1015.67
2017-07-17T05:39:30.914Z,1015.8
2017-07-17T05:40:11.535Z,1015.65
2017-07-17T05:40:52.149Z,1015.69
2017-07-17T05:41:32.747Z,1015.82
2017-07-17T05:42:13.319Z,1015.83
2017-07-17T05:42:53.921Z,1015.91
2017-07-17T05:43:34.494Z,1015.85
2017-07-17T05:44:15.113Z,1016
2017-07-17T05:44:55.648Z,1015.98
2017-07-17T05:45:36.246Z,1015.82
2017-07-17T05:46:16.840Z,1015.73
2017-07-17T05:46:57.428Z,1015.94
2017-07-17T05:47:38.056Z,1015.76
2017-07-17T05:48:18.728Z,1016.04
2017-07-17T05:48:59.299Z,1015.81
2017-07-17T05:49:39.881Z,1015.77
2017-07-17T05:50:20.477Z,1015.72
2017-07-17T05:51:01.069Z,1015.78
2017-07-17T05:51:41.640Z,1015.77
2017-07-17T05:52:22.214Z,1015.87
2017-07-17T05:53:02.927Z,1015.93
2017-07-17T05:53:43.524Z,1015.79
2017-07-17T05:54:24.129Z,1016.21
2017-07-17T05:55:04.729Z,1015.8
2017-07-17T05:55:45.319Z,1015.91
2017-07-17T05:56:25.882Z,1016.58
2017-07-17T05:57:06.518Z,1015.8
2017-07-17T05:57:47.133Z,1015.81
2017-07-17T05:58:27.812Z,1015.83
2017-07-17T05:59:08.436Z,1016.89
2017-07-17T05:59:49.031Z,1017
2017-07-17T06:00:29.625Z,1016.23
2017-07-17T06:01:10.227Z,1016.46
2017-07-17T06:01:50.817Z,1015.88
2017-07-17T06:02:31.407Z,1015.96
2017-07-17T06:03:11.970Z,1017.35
2017-07-17T06:03:52.538Z,1016.34
2017-07-17T06:04:33.127Z,1017.33
2017-07-17T06:05:13.719Z,1016.66
2017-07-17T06:05:54.327Z,1016.27
2017-07-17T06:06:34.941Z,1016.08
2017-07-17T06:07:15.570Z,1017.72
2017-07-17T06:07:56.219Z,1017.59
2017-07-17T06:08:36.829Z,1017.63
2017-07-17T06:09:17.394Z,1017.48
2017-07-17T06:09:57.989Z,1016.46
2017-07-17T06:10:38.562Z,1016.03
2017-07-17T06:11:19.168Z,1016.39
2017-07-17T06:11:59.768Z,1017.34
2017-07-17T06:12:40.396Z,1017.26
2017-07-17T06:13:21.172Z,1015.98
2017-07-17T06:14:01.790Z,1015.99
2017-07-17T06:14:42.370Z,1015.95
2017-07-17T06:15:22.939Z,1015.97
2017-07-17T06:16:03.518Z,1015.96
2017-07-17T06:16:44.100Z,1015.99
2017-07-17T06:17:24.694Z,1015.99
2017-07-17T06:18:05.280Z,1016.12
2017-07-17T06:18:45.845Z,1017.01
2017-07-17T06:19:26.440Z,1016.03
2017-07-17T06:20:07.021Z,1016.04
2017-07-17T06:20:47.620Z,1016.8
2017-07-17T06:21:28.209Z,1016.06
2017-07-17T06:22:08.791Z,1016.07
2017-07-17T06:22:49.356Z,1016.1
2017-07-17T06:23:29.962Z,1016.1
2017-07-17T06:24:10.531Z,1016.06
2017-07-17T06:24:51.155Z,1016.12
2017-07-17T06:25:31.766Z,1016.71
2017-07-17T06:26:12.341Z,1016.08
2017-07-17T06:26:52.940Z,1016.15
2017-07-17T06:27:33.502Z,1017.7
2017-07-17T06:28:14.080Z,1016.08
2017-07-17T06:28:54.663Z,1016.07
2017-07-17T06:29:35.268Z,1016.06
2017-07-17T06:30:15.825Z,1016.07
2017-07-17T06:30:56.405Z,1016.07
2017-07-17T06:31:37.014Z,1016.14
2017-07-17T06:32:17.605Z,1016.15
2017-07-17T06:32:58.207Z,1017.12
2017-07-17T06:33:38.772Z,1016.93
2017-07-17T06:34:19.344Z,1016.16
2017-07-17T06:34:59.935Z,1016.02
2017-07-17T06:35:40.584Z,1016.06
2017-07-17T06:36:21.222Z,1016.07
2017-07-17T06:37:01.807Z,1016.05
2017-07-17T06:37:42.387Z,1016.08
2017-07-17T06:38:23.014Z,1016.07
2017-07-17T06:39:03.599Z,1016.08
2017-07-17T06:39:44.198Z,1016.01
2017-07-17T06:40:24.763Z,1016.09
2017-07-17T06:41:05.332Z,1017.13
2017-07-17T06:41:45.905Z,1016.28
2017-07-17T06:42:26.546Z,1017.9
2017-07-17T06:43:07.147Z,1017.66
2017-07-17T06:43:47.767Z,1017.41
2017-07-17T06:44:28.352Z,1017.95
2017-07-17T06:45:08.928Z,1016.41
2017-07-17T06:45:49.519Z,1017.06
2017-07-17T06:46:30.097Z,1016.39
2017-07-17T06:47:10.674Z,1016.07
2017-07-17T06:47:51.290Z,1016.09
2017-07-17T06:48:31.950Z,1016.06
2017-07-17T06:49:12.597Z,1016.04
2017-07-17T06:49:53.192Z,1016.1
2017-07-17T06:50:33.790Z,1016.31
2017-07-17T06:51:14.422Z,1016.35
2017-07-17T06:51:55.203Z,1016.35
2017-07-17T06:52:35.816Z,1016.41
2017-07-17T06:53:16.440Z,1016.12
2017-07-17T06:53:57.114Z,1016.19
2017-07-17T06:54:37.665Z,1016.41
2017-07-17T06:55:18.250Z,1016.54
2017-07-17T06:55:58.857Z,1016.72
2017-07-17T06:56:39.670Z,1016.94
2017-07-17T06:58:33.387Z,1016.97
2017-07-17T06:59:14.201Z,1016.45
2017-07-17T06:59:54.842Z,1016.55
2017-07-17T07:00:35.578Z,1016.39
2017-07-17T07:01:16.452Z,1016.59
2017-07-17T07:01:57.054Z,1016.42
2017-07-17T07:02:37.647Z,1016.45
2017-07-17T07:03:18.352Z,1016.47
2017-07-17T07:03:58.958Z,1016.48
2017-07-17T07:04:39.637Z,1016.51
2017-07-17T07:05:21.597Z,1016.5
2017-07-17T07:06:02.167Z,1016.51
2017-07-17T07:06:42.818Z,1016.51
2017-07-17T07:07:23.913Z,1016.51
2017-07-17T07:08:04.508Z,1016.57
2017-07-17T07:08:45.102Z,1016.53
2017-07-17T07:09:25.683Z,1016.52
2017-07-17T07:10:06.271Z,1016.5
2017-07-17T07:10:46.935Z,1016.52
2017-07-17T07:11:27.567Z,1016.4
2017-07-17T07:12:08.197Z,1016.48
2017-07-17T07:12:48.767Z,1016.38
2017-07-17T07:13:29.352Z,1016.37
2017-07-17T07:14:09.942Z,1016.36
2017-07-17T07:14:50.516Z,1016.38
2017-07-17T07:15:31.213Z,1016.38
2017-07-17T07:16:11.785Z,1016.34
2017-07-17T07:16:52.361Z,1016.36
2017-07-17T07:17:32.941Z,1016.33
2017-07-17T07:18:13.527Z,1016.38
2017-07-17T07:18:54.104Z,1016.4
2017-07-17T07:19:34.708Z,1016.33
2017-07-17T07:20:15.307Z,1016.36
2017-07-17T07:20:55.891Z,1016.3
2017-07-17T07:21:36.467Z,1016.33
2017-07-17T07:22:17.074Z,1016.33
2017-07-17T07:22:57.682Z,1016.27
2017-07-17T07:23:38.259Z,1016.3
2017-07-17T07:24:18.866Z,1016.3
2017-07-17T07:24:59.453Z,1016.3
2017-07-17T07:25:40.045Z,1016.26
2017-07-17T07:26:20.638Z,1016.26
2017-07-17T07:27:01.220Z,1016.31
2017-07-17T07:27:41.815Z,1016.28
2017-07-17T07:28:22.380Z,1016.31
2017-07-17T07:29:02.987Z,1016.29
2017-07-17T07:29:43.588Z,1016.3
2017-07-17T07:30:24.162Z,1016.27
2017-07-17T07:31:04.755Z,1016.26
2017-07-17T07:31:45.336Z,1016.22
2017-07-17T07:32:25.923Z,1016.23
2017-07-17T07:33:06.512Z,1016.21
2017-07-17T07:33:47.092Z,1016.23
2017-07-17T07:34:27.671Z,1016.24
2017-07-17T07:35:08.254Z,1016.29
2017-07-17T07:35:48.817Z,1016.32
2017-07-17T07:36:29.398Z,1016.49
2017-07-17T07:37:09.974Z,1016.3
2017-07-17T07:37:50.567Z,1016.56
2017-07-17T07:38:31.209Z,1016.56
2017-07-17T07:39:11.867Z,1016.55
2017-07-17T07:39:52.360Z,1016.52
2017-07-17T07:40:33.642Z,1016.47
2017-07-17T07:41:14.354Z,1016.46
2017-07-17T07:41:54.950Z,1016.49
2017-07-17T07:42:35.568Z,1016.48
2017-07-17T07:43:16.207Z,1016.47
2017-07-17T07:43:56.782Z,1016.46
2017-07-17T07:44:37.557Z,1016.5
2017-07-17T07:45:18.124Z,1016.49
2017-07-17T07:45:58.797Z,1016.44
2017-07-17T07:46:39.511Z,1016.44
2017-07-17T07:47:20.282Z,1016.47
2017-07-17T07:48:00.958Z,1016.46
2017-07-17T07:48:41.637Z,1016.45
2017-07-17T07:49:22.200Z,1016.45
2017-07-17T07:50:02.779Z,1016.46
2017-07-17T07:50:43.485Z,1016.47
2017-07-17T07:51:24.107Z,1016.49
2017-07-17T07:52:04.701Z,1016.49
2017-07-17T07:52:45.615Z,1016.37
2017-07-17T07:53:26.394Z,1016.28
2017-07-17T07:54:07.217Z,1016.45
2017-07-17T07:54:47.819Z,1016.37
2017-07-17T07:55:28.758Z,1016.46
2017-07-17T07:56:09.451Z,1016.45
2017-07-17T07:56:50.141Z,1016.47
2017-07-17T07:57:31.071Z,1016.44
2017-07-17T07:58:11.471Z,1016.5
2017-07-17T07:58:52.066Z,1016.48
2017-07-17T07:59:32.659Z,1016.47
2017-07-17T08:00:13.249Z,1016.5
2017-07-17T08:00:53.827Z,1016.46
2017-07-17T08:01:34.410Z,1016.47
2017-07-17T08:02:15.386Z,1016.53
2017-07-17T08:02:56.398Z,1016.5
2017-07-17T08:03:36.580Z,1016.49
2017-07-17T08:04:17.181Z,1016.43
2017-07-17T08:04:57.796Z,1016.44
2017-07-17T08:05:38.406Z,1016.43
2017-07-17T08:06:19.001Z,1016.49
2017-07-17T08:06:59.608Z,1016.49
2017-07-17T08:07:40.200Z,1016.45
2017-07-17T08:08:20.771Z,1016.42
2017-07-17T08:09:01.341Z,1016.44
2017-07-17T08:09:41.946Z,1016.42
2017-07-17T08:10:22.528Z,1016.38
2017-07-17T08:11:03.104Z,1016.39
2017-07-17T08:11:43.686Z,1016.43
2017-07-17T08:12:24.260Z,1016.39
2017-07-17T08:13:04.934Z,1016.4
2017-07-17T08:13:45.591Z,1016.45
2017-07-17T08:14:26.210Z,1016.49